VKG2565 EFHK-ESSA
Flight info
| Callsign | VKG2565 |
|---|---|
| Flight time | 0h 37m |
| Altitude | 30000 |
| Route | EFHK/22R N0439F300 ADIV4N ADIVO Y365 POGOK DCT RUNGA N872 XILAN XILA4M ESSA/01R |
| Aircraft | A321/M-V/N |
Departure
| Time | 2026-04-25 11:06 |
|---|---|
| Airport | Helsinki Vantaa Airport (EFHK) |
Arrival
| Time | 2026-04-25 11:44 |
|---|---|
| Airport | Stockholm-Arlanda Airport (ESSA) |
| Time | Latitude | Longitude | Altitude | Speed | Heading |
|---|---|---|---|---|---|
| 2026-04-25 10:50 | 60.31783 | 24.96259 | 166 ft | 0 kts | 141° |
| 2026-04-25 11:00 | 60.31786 | 24.96253 | 166 ft | 3 kts | 140° |
| 2026-04-25 11:00 | 60.31800 | 24.96230 | 165 ft | 3 kts | 140° |
| 2026-04-25 11:01 | 60.31813 | 24.96208 | 165 ft | 2 kts | 141° |
| 2026-04-25 11:01 | 60.31825 | 24.96183 | 165 ft | 3 kts | 96° |
| 2026-04-25 11:01 | 60.31825 | 24.96158 | 164 ft | 0 kts | 58° |
| 2026-04-25 11:02 | 60.31830 | 24.96167 | 164 ft | 4 kts | 41° |
| 2026-04-25 11:02 | 60.31896 | 24.96105 | 163 ft | 19 kts | 313° |
| 2026-04-25 11:02 | 60.32003 | 24.95889 | 162 ft | 21 kts | 317° |
| 2026-04-25 11:02 | 60.32106 | 24.95695 | 161 ft | 20 kts | 316° |
| 2026-04-25 11:03 | 60.32211 | 24.95510 | 162 ft | 22 kts | 318° |
| 2026-04-25 11:03 | 60.32339 | 24.95275 | 164 ft | 27 kts | 327° |
| 2026-04-25 11:03 | 60.32529 | 24.95145 | 167 ft | 29 kts | 342° |
| 2026-04-25 11:03 | 60.32706 | 24.95027 | 172 ft | 25 kts | 343° |
| 2026-04-25 11:04 | 60.32851 | 24.94937 | 179 ft | 19 kts | 340° |
| 2026-04-25 11:04 | 60.32968 | 24.94780 | 185 ft | 24 kts | 317° |
| 2026-04-25 11:04 | 60.33088 | 24.94552 | 201 ft | 19 kts | 316° |
| 2026-04-25 11:04 | 60.33123 | 24.94423 | 198 ft | 14 kts | 262° |
| 2026-04-25 11:05 | 60.33106 | 24.94368 | 203 ft | 0 kts | 231° |
| 2026-04-25 11:05 | 60.33105 | 24.94364 | 208 ft | 0 kts | 231° |
| 2026-04-25 11:05 | 60.33104 | 24.94361 | 208 ft | 2 kts | 231° |
| 2026-04-25 11:05 | 60.32954 | 24.94034 | 194 ft | 78 kts | 228° |
| 2026-04-25 11:06 | 60.32388 | 24.92787 | 175 ft | 159 kts | 229° |
| 2026-04-25 11:06 | 60.31582 | 24.90947 | 793 ft | 178 kts | 230° |
| 2026-04-25 11:06 | 60.31048 | 24.89737 | 1673 ft | 175 kts | 230° |
| 2026-04-25 11:06 | 60.30170 | 24.86929 | 2547 ft | 193 kts | 259° |
| 2026-04-25 11:07 | 60.30296 | 24.84115 | 2849 ft | 216 kts | 287° |
| 2026-04-25 11:07 | 60.30921 | 24.81138 | 3270 ft | 240 kts | 292° |
| 2026-04-25 11:07 | 60.31610 | 24.78014 | 4093 ft | 247 kts | 290° |
| 2026-04-25 11:07 | 60.31878 | 24.74616 | 5027 ft | 248 kts | 271° |
| 2026-04-25 11:08 | 60.31865 | 24.72252 | 5707 ft | 250 kts | 267° |
| 2026-04-25 11:08 | 60.31752 | 24.68717 | 6610 ft | 254 kts | 266° |
| 2026-04-25 11:08 | 60.31623 | 24.65127 | 7411 ft | 262 kts | 266° |
| 2026-04-25 11:08 | 60.31496 | 24.61352 | 7735 ft | 285 kts | 267° |
| 2026-04-25 11:09 | 60.31370 | 24.57206 | 8146 ft | 303 kts | 267° |
| 2026-04-25 11:09 | 60.31130 | 24.52928 | 8927 ft | 310 kts | 263° |
| 2026-04-25 11:09 | 60.30805 | 24.48580 | 9665 ft | 317 kts | 261° |
| 2026-04-25 11:09 | 60.30437 | 24.44055 | 9985 ft | 335 kts | 261° |
| 2026-04-25 11:10 | 60.30044 | 24.39391 | 10659 ft | 340 kts | 260° |
| 2026-04-25 11:10 | 60.29779 | 24.36277 | 11190 ft | 341 kts | 260° |
| 2026-04-25 11:10 | 60.29244 | 24.29934 | 12271 ft | 343 kts | 260° |
| 2026-04-25 11:10 | 60.28848 | 24.25177 | 13082 ft | 345 kts | 259° |
| 2026-04-25 11:11 | 60.28457 | 24.20444 | 13766 ft | 347 kts | 259° |
| 2026-04-25 11:11 | 60.28058 | 24.15630 | 14421 ft | 350 kts | 259° |
| 2026-04-25 11:11 | 60.27653 | 24.10768 | 15108 ft | 353 kts | 260° |
| 2026-04-25 11:11 | 60.27243 | 24.05863 | 15702 ft | 357 kts | 260° |
| 2026-04-25 11:12 | 60.26827 | 24.00901 | 16313 ft | 360 kts | 260° |
| 2026-04-25 11:12 | 60.26405 | 23.95900 | 16934 ft | 364 kts | 259° |
| 2026-04-25 11:12 | 60.25975 | 23.90870 | 17575 ft | 366 kts | 259° |
| 2026-04-25 11:12 | 60.25541 | 23.85797 | 18116 ft | 370 kts | 259° |
| 2026-04-25 11:13 | 60.25102 | 23.80665 | 18674 ft | 372 kts | 259° |
| 2026-04-25 11:13 | 60.24659 | 23.75522 | 19214 ft | 374 kts | 259° |
| 2026-04-25 11:13 | 60.24210 | 23.70339 | 19751 ft | 377 kts | 258° |
| 2026-04-25 11:13 | 60.23754 | 23.65124 | 20282 ft | 379 kts | 258° |
| 2026-04-25 11:14 | 60.23295 | 23.59883 | 20824 ft | 382 kts | 258° |
| 2026-04-25 11:14 | 60.22832 | 23.54607 | 21347 ft | 384 kts | 258° |
| 2026-04-25 11:14 | 60.22362 | 23.49307 | 21875 ft | 387 kts | 258° |
| 2026-04-25 11:14 | 60.21885 | 23.43950 | 22394 ft | 389 kts | 257° |
| 2026-04-25 11:15 | 60.21413 | 23.38653 | 22900 ft | 392 kts | 257° |
| 2026-04-25 11:15 | 60.20932 | 23.33248 | 23313 ft | 394 kts | 257° |
| 2026-04-25 11:15 | 60.20444 | 23.27783 | 23668 ft | 399 kts | 258° |
| 2026-04-25 11:15 | 60.19946 | 23.22260 | 23992 ft | 403 kts | 258° |
| 2026-04-25 11:16 | 60.18929 | 23.11078 | 24706 ft | 409 kts | 258° |
| 2026-04-25 11:16 | 60.18412 | 23.05460 | 25068 ft | 411 kts | 258° |
| 2026-04-25 11:16 | 60.17889 | 22.99799 | 25443 ft | 413 kts | 259° |
| 2026-04-25 11:17 | 60.17363 | 22.94103 | 25807 ft | 416 kts | 259° |
| 2026-04-25 11:17 | 60.16833 | 22.88373 | 26167 ft | 418 kts | 259° |
| 2026-04-25 11:17 | 60.16299 | 22.82611 | 26524 ft | 421 kts | 259° |
| 2026-04-25 11:17 | 60.15755 | 22.76833 | 26872 ft | 423 kts | 259° |
| 2026-04-25 11:18 | 60.15200 | 22.71011 | 27207 ft | 425 kts | 259° |
| 2026-04-25 11:18 | 60.14647 | 22.65270 | 27664 ft | 424 kts | 259° |
| 2026-04-25 11:18 | 60.14083 | 22.59469 | 28125 ft | 423 kts | 258° |
| 2026-04-25 11:18 | 60.13466 | 22.53698 | 28573 ft | 422 kts | 257° |
| 2026-04-25 11:19 | 60.11342 | 22.36403 | 29500 ft | 421 kts | 256° |
| 2026-04-25 11:19 | 60.08591 | 22.14157 | 29341 ft | 414 kts | 256° |
| 2026-04-25 11:19 | 60.05855 | 21.91972 | 29465 ft | 406 kts | 257° |
| 2026-04-25 11:19 | 60.03075 | 21.69784 | 29587 ft | 409 kts | 256° |
| 2026-04-25 11:20 | 59.97291 | 21.25329 | 29342 ft | 417 kts | 255° |
| 2026-04-25 11:20 | 59.93219 | 20.96582 | 29483 ft | 414 kts | 255° |
| 2026-04-25 11:21 | 59.90012 | 20.74009 | 29500 ft | 413 kts | 255° |
| 2026-04-25 11:21 | 59.86251 | 20.48042 | 29262 ft | 414 kts | 255° |
| 2026-04-25 11:22 | 59.85452 | 20.42555 | 28844 ft | 412 kts | 255° |
| 2026-04-25 11:22 | 59.84922 | 20.38935 | 28256 ft | 413 kts | 255° |
| 2026-04-25 11:22 | 59.83841 | 20.31587 | 26998 ft | 415 kts | 254° |
| 2026-04-25 11:22 | 59.83026 | 20.26067 | 26086 ft | 416 kts | 254° |
| 2026-04-25 11:23 | 59.82207 | 20.20539 | 25321 ft | 418 kts | 254° |
| 2026-04-25 11:23 | 59.81396 | 20.15063 | 24630 ft | 419 kts | 254° |
| 2026-04-25 11:23 | 59.80569 | 20.09503 | 23966 ft | 419 kts | 254° |
| 2026-04-25 11:23 | 59.79737 | 20.03941 | 23091 ft | 419 kts | 255° |
| 2026-04-25 11:24 | 59.78910 | 19.98441 | 22424 ft | 411 kts | 255° |
| 2026-04-25 11:24 | 59.78099 | 19.93054 | 21710 ft | 405 kts | 255° |
| 2026-04-25 11:24 | 59.77296 | 19.87736 | 20995 ft | 399 kts | 255° |
| 2026-04-25 11:24 | 59.76504 | 19.82506 | 20453 ft | 390 kts | 255° |
| 2026-04-25 11:25 | 59.75727 | 19.77396 | 19898 ft | 383 kts | 255° |
| 2026-04-25 11:25 | 59.74963 | 19.72386 | 19269 ft | 378 kts | 255° |
| 2026-04-25 11:25 | 59.74234 | 19.67421 | 18631 ft | 373 kts | 256° |
| 2026-04-25 11:25 | 59.73549 | 19.62474 | 17872 ft | 372 kts | 257° |
| 2026-04-25 11:26 | 59.72885 | 19.57533 | 17095 ft | 369 kts | 257° |
| 2026-04-25 11:26 | 59.72229 | 19.52642 | 16360 ft | 365 kts | 257° |
| 2026-04-25 11:26 | 59.71575 | 19.47808 | 15846 ft | 357 kts | 257° |
| 2026-04-25 11:26 | 59.70935 | 19.43143 | 15495 ft | 346 kts | 257° |
| 2026-04-25 11:27 | 59.70302 | 19.38589 | 14938 ft | 342 kts | 257° |
| 2026-04-25 11:27 | 59.69669 | 19.34068 | 14370 ft | 339 kts | 257° |
| 2026-04-25 11:27 | 59.69036 | 19.29581 | 13789 ft | 336 kts | 257° |
| 2026-04-25 11:27 | 59.68622 | 19.26641 | 13426 ft | 335 kts | 257° |
| 2026-04-25 11:28 | 59.67799 | 19.20784 | 12619 ft | 332 kts | 257° |
| 2026-04-25 11:28 | 59.67178 | 19.16399 | 12017 ft | 330 kts | 257° |
| 2026-04-25 11:28 | 59.66557 | 19.12046 | 11615 ft | 328 kts | 258° |
| 2026-04-25 11:28 | 59.65938 | 19.07694 | 11555 ft | 329 kts | 258° |
| 2026-04-25 11:29 | 59.65318 | 19.03332 | 11548 ft | 329 kts | 257° |
| 2026-04-25 11:29 | 59.64697 | 18.98987 | 11564 ft | 328 kts | 257° |
| 2026-04-25 11:29 | 59.64078 | 18.94677 | 11292 ft | 324 kts | 257° |
| 2026-04-25 11:29 | 59.63456 | 18.90323 | 10171 ft | 336 kts | 257° |
| 2026-04-25 11:30 | 59.62821 | 18.85886 | 9754 ft | 329 kts | 257° |
| 2026-04-25 11:30 | 59.62202 | 18.81645 | 9612 ft | 313 kts | 257° |
| 2026-04-25 11:30 | 59.61609 | 18.77617 | 9492 ft | 298 kts | 257° |
| 2026-04-25 11:30 | 59.61051 | 18.73808 | 9347 ft | 280 kts | 258° |
| 2026-04-25 11:31 | 59.60526 | 18.70206 | 9215 ft | 266 kts | 258° |
| 2026-04-25 11:31 | 59.60028 | 18.66766 | 9036 ft | 256 kts | 258° |
| 2026-04-25 11:31 | 59.59542 | 18.63410 | 8705 ft | 253 kts | 258° |
| 2026-04-25 11:31 | 59.58920 | 18.60208 | 8279 ft | 258 kts | 242° |
| 2026-04-25 11:32 | 59.57701 | 18.57552 | 7840 ft | 265 kts | 229° |
| 2026-04-25 11:32 | 59.56332 | 18.55102 | 7395 ft | 266 kts | 228° |
| 2026-04-25 11:32 | 59.54951 | 18.52662 | 6962 ft | 267 kts | 228° |
| 2026-04-25 11:32 | 59.53569 | 18.50219 | 6574 ft | 266 kts | 228° |
| 2026-04-25 11:33 | 59.52405 | 18.47445 | 6560 ft | 262 kts | 249° |
| 2026-04-25 11:33 | 59.51734 | 18.44124 | 6506 ft | 261 kts | 251° |
| 2026-04-25 11:33 | 59.50664 | 18.41165 | 6092 ft | 269 kts | 236° |
| 2026-04-25 11:33 | 59.49403 | 18.38427 | 5642 ft | 270 kts | 233° |
| 2026-04-25 11:34 | 59.48126 | 18.35721 | 5218 ft | 269 kts | 232° |
| 2026-04-25 11:34 | 59.46853 | 18.33012 | 4799 ft | 269 kts | 233° |
| 2026-04-25 11:34 | 59.45734 | 18.30116 | 4380 ft | 264 kts | 242° |
| 2026-04-25 11:34 | 59.44723 | 18.27109 | 4012 ft | 261 kts | 243° |
| 2026-04-25 11:35 | 59.43728 | 18.24127 | 3990 ft | 262 kts | 243° |
| 2026-04-25 11:35 | 59.42725 | 18.21129 | 3991 ft | 263 kts | 243° |
| 2026-04-25 11:35 | 59.41728 | 18.18114 | 3995 ft | 264 kts | 243° |
| 2026-04-25 11:35 | 59.40735 | 18.15139 | 3995 ft | 263 kts | 243° |
| 2026-04-25 11:36 | 59.39736 | 18.12125 | 4002 ft | 262 kts | 243° |
| 2026-04-25 11:36 | 59.38741 | 18.09123 | 4001 ft | 263 kts | 243° |
| 2026-04-25 11:36 | 59.37747 | 18.06118 | 3999 ft | 262 kts | 243° |
| 2026-04-25 11:36 | 59.36859 | 18.03034 | 3996 ft | 256 kts | 258° |
| 2026-04-25 11:37 | 59.36648 | 17.99659 | 4003 ft | 247 kts | 275° |
| 2026-04-25 11:37 | 59.36700 | 17.96298 | 4003 ft | 247 kts | 277° |
| 2026-04-25 11:37 | 59.36810 | 17.92938 | 3999 ft | 245 kts | 284° |
| 2026-04-25 11:37 | 59.37469 | 17.89967 | 4000 ft | 238 kts | 310° |
| 2026-04-25 11:38 | 59.38724 | 17.87928 | 3997 ft | 235 kts | 334° |
| 2026-04-25 11:38 | 59.40309 | 17.87170 | 3999 ft | 234 kts | 358° |
| 2026-04-25 11:38 | 59.41871 | 17.87594 | 3998 ft | 219 kts | 7° |
| 2026-04-25 11:38 | 59.43325 | 17.88124 | 3989 ft | 208 kts | 6° |
| 2026-04-25 11:39 | 59.44719 | 17.88624 | 3830 ft | 199 kts | 6° |
| 2026-04-25 11:39 | 59.46061 | 17.89104 | 3572 ft | 193 kts | 6° |
| 2026-04-25 11:39 | 59.47359 | 17.89570 | 3315 ft | 187 kts | 6° |
| 2026-04-25 11:39 | 59.48629 | 17.90025 | 3063 ft | 184 kts | 5° |
| 2026-04-25 11:40 | 59.49450 | 17.90320 | 2909 ft | 178 kts | 5° |
| 2026-04-25 11:40 | 59.51013 | 17.90883 | 2581 ft | 163 kts | 5° |
| 2026-04-25 11:40 | 59.52101 | 17.91275 | 2360 ft | 155 kts | 4° |
| 2026-04-25 11:40 | 59.53100 | 17.91636 | 2163 ft | 137 kts | 5° |
| 2026-04-25 11:41 | 59.54007 | 17.91961 | 1973 ft | 131 kts | 5° |
| 2026-04-25 11:41 | 59.54902 | 17.92287 | 1783 ft | 131 kts | 5° |
| 2026-04-25 11:41 | 59.55793 | 17.92602 | 1618 ft | 130 kts | 5° |
| 2026-04-25 11:41 | 59.56682 | 17.92920 | 1424 ft | 129 kts | 5° |
| 2026-04-25 11:42 | 59.57560 | 17.93233 | 1214 ft | 128 kts | 5° |
| 2026-04-25 11:42 | 59.58443 | 17.93539 | 1026 ft | 130 kts | 6° |
| 2026-04-25 11:42 | 59.59320 | 17.93871 | 827 ft | 129 kts | 9° |
| 2026-04-25 11:42 | 59.60223 | 17.94201 | 675 ft | 136 kts | 10° |
| 2026-04-25 11:43 | 59.61134 | 17.94544 | 504 ft | 137 kts | 9° |
| 2026-04-25 11:43 | 59.62060 | 17.94870 | 315 ft | 134 kts | 9° |
| 2026-04-25 11:43 | 59.62949 | 17.95178 | 162 ft | 124 kts | 9° |
| 2026-04-25 11:43 | 59.63680 | 17.95451 | 145 ft | 79 kts | 11° |
| 2026-04-25 11:44 | 59.63949 | 17.95550 | 144 ft | 23 kts | 10° |
| 2026-04-25 11:44 | 59.64125 | 17.95516 | 142 ft | 32 kts | 340° |
| 2026-04-25 11:44 | 59.64383 | 17.95361 | 138 ft | 44 kts | 342° |
| 2026-04-25 11:44 | 59.64622 | 17.95371 | 138 ft | 33 kts | 13° |
| 2026-04-25 11:45 | 59.64848 | 17.95476 | 138 ft | 33 kts | 13° |
| 2026-04-25 11:45 | 59.65078 | 17.95495 | 138 ft | 33 kts | 348° |
| 2026-04-25 11:45 | 59.65302 | 17.95390 | 138 ft | 34 kts | 343° |
| 2026-04-25 11:45 | 59.65527 | 17.95266 | 138 ft | 34 kts | 345° |
| 2026-04-25 11:46 | 59.65707 | 17.95162 | 138 ft | 19 kts | 333° |
| 2026-04-25 11:46 | 59.65741 | 17.94943 | 138 ft | 18 kts | 259° |